sensor_id;sensor_type;location;lat;lon;timestamp;pressure;altitude;pressure_sealevel;temperature;humidity
45050;BME280;61798;48.048;-1.928;2023-04-04T00:00:19;101646.41;;;1.37;100.00
45050;BME280;61798;48.048;-1.928;2023-04-04T00:02:26;101615.22;;;1.30;100.00
45050;BME280;61798;48.048;-1.928;2023-04-04T00:04:33;101630.63;;;1.36;100.00
45050;BME280;61798;48.048;-1.928;2023-04-04T00:06:41;101606.16;;;1.21;100.00
45050;BME280;61798;48.048;-1.928;2023-04-04T00:08:50;101644.47;;;1.53;100.00
45050;BME280;61798;48.048;-1.928;2023-04-04T00:11:00;101652.72;;;1.48;100.00
45050;BME280;61798;48.048;-1.928;2023-04-04T00:13:08;101637.53;;;1.39;100.00
45050;BME280;61798;48.048;-1.928;2023-04-04T00:15:16;101641.22;;;1.36;100.00
45050;BME280;61798;48.048;-1.928;2023-04-04T00:17:23;101638.38;;;1.39;100.00
45050;BME280;61798;48.048;-1.928;2023-04-04T00:19:30;101639.94;;;1.42;100.00
45050;BME280;61798;48.048;-1.928;2023-04-04T00:21:37;101634.78;;;1.27;100.00
45050;BME280;61798;48.048;-1.928;2023-04-04T00:23:46;101620.94;;;1.10;100.00
45050;BME280;61798;48.048;-1.928;2023-04-04T00:25:54;101608.69;;;1.09;100.00
45050;BME280;61798;48.048;-1.928;2023-04-04T00:28:01;101594.00;;;1.05;100.00
45050;BME280;61798;48.048;-1.928;2023-04-04T00:30:10;101615.75;;;1.09;100.00
45050;BME280;61798;48.048;-1.928;2023-04-04T00:32:18;101639.13;;;1.15;100.00
45050;BME280;61798;48.048;-1.928;2023-04-04T00:34:25;101606.50;;;1.03;100.00
45050;BME280;61798;48.048;-1.928;2023-04-04T00:36:32;101651.25;;;1.18;100.00
45050;BME280;61798;48.048;-1.928;2023-04-04T00:38:40;101646.19;;;1.01;100.00
45050;BME280;61798;48.048;-1.928;2023-04-04T00:40:49;101631.16;;;0.89;100.00
45050;BME280;61798;48.048;-1.928;2023-04-04T00:42:58;101647.63;;;0.92;100.00
45050;BME280;61798;48.048;-1.928;2023-04-04T00:45:08;101608.66;;;0.70;100.00
45050;BME280;61798;48.048;-1.928;2023-04-04T00:47:14;101628.94;;;0.82;100.00
45050;BME280;61798;48.048;-1.928;2023-04-04T00:49:22;101648.28;;;0.96;100.00
45050;BME280;61798;48.048;-1.928;2023-04-04T00:51:31;101600.31;;;0.76;100.00
45050;BME280;61798;48.048;-1.928;2023-04-04T00:53:38;101611.41;;;0.81;100.00
45050;BME280;61798;48.048;-1.928;2023-04-04T00:55:46;101650.59;;;1.01;100.00
45050;BME280;61798;48.048;-1.928;2023-04-04T00:57:53;101637.09;;;0.92;100.00
45050;BME280;61798;48.048;-1.928;2023-04-04T01:00:02;101619.44;;;0.80;100.00
45050;BME280;61798;48.048;-1.928;2023-04-04T01:02:12;101621.88;;;0.83;100.00
45050;BME280;61798;48.048;-1.928;2023-04-04T01:04:19;101648.72;;;1.03;100.00
45050;BME280;61798;48.048;-1.928;2023-04-04T01:06:26;101615.75;;;0.82;100.00
45050;BME280;61798;48.048;-1.928;2023-04-04T01:08:35;101642.59;;;1.02;100.00
45050;BME280;61798;48.048;-1.928;2023-04-04T01:10:46;101647.00;;;0.89;100.00
45050;BME280;61798;48.048;-1.928;2023-04-04T01:12:53;101636.66;;;0.86;100.00
45050;BME280;61798;48.048;-1.928;2023-04-04T01:15:01;101619.75;;;0.75;100.00
45050;BME280;61798;48.048;-1.928;2023-04-04T01:17:07;101616.78;;;0.67;100.00
45050;BME280;61798;48.048;-1.928;2023-04-04T01:19:40;101651.09;;;0.80;100.00
45050;BME280;61798;48.048;-1.928;2023-04-04T01:21:44;101651.31;;;0.77;100.00
45050;BME280;61798;48.048;-1.928;2023-04-04T01:24:03;101644.41;;;0.61;100.00
45050;BME280;61798;48.048;-1.928;2023-04-04T01:26:10;101621.19;;;0.53;100.00
45050;BME280;61798;48.048;-1.928;2023-04-04T01:28:18;101641.13;;;0.57;100.00
45050;BME280;61798;48.048;-1.928;2023-04-04T01:30:31;101655.19;;;0.58;100.00
45050;BME280;61798;48.048;-1.928;2023-04-04T01:32:51;101648.81;;;0.47;100.00
45050;BME280;61798;48.048;-1.928;2023-04-04T01:37:47;101658.88;;;0.55;100.00
45050;BME280;61798;48.048;-1.928;2023-04-04T01:40:07;101637.25;;;0.63;100.00
45050;BME280;61798;48.048;-1.928;2023-04-04T01:42:30;101662.25;;;0.57;100.00
45050;BME280;61798;48.048;-1.928;2023-04-04T01:44:38;101642.84;;;0.30;100.00
45050;BME280;61798;48.048;-1.928;2023-04-04T01:46:45;101633.53;;;0.25;100.00
45050;BME280;61798;48.048;-1.928;2023-04-04T01:48:52;101642.59;;;0.20;100.00
45050;BME280;61798;48.048;-1.928;2023-04-04T01:51:00;101653.06;;;0.22;100.00
45050;BME280;61798;48.048;-1.928;2023-04-04T01:53:08;101645.56;;;0.01;100.00
45050;BME280;61798;48.048;-1.928;2023-04-04T01:55:15;101660.31;;;0.18;100.00
45050;BME280;61798;48.048;-1.928;2023-04-04T01:57:26;101652.25;;;0.07;100.00
45050;BME280;61798;48.048;-1.928;2023-04-04T01:59:35;101656.47;;;0.09;100.00
45050;BME280;61798;48.048;-1.928;2023-04-04T02:01:41;101636.53;;;0.05;100.00
45050;BME280;61798;48.048;-1.928;2023-04-04T02:03:48;101652.06;;;0.38;100.00
45050;BME280;61798;48.048;-1.928;2023-04-04T02:05:54;101621.31;;;0.24;100.00
45050;BME280;61798;48.048;-1.928;2023-04-04T02:08:01;101654.94;;;0.48;100.00
45050;BME280;61798;48.048;-1.928;2023-04-04T02:10:09;101651.06;;;0.26;100.00
45050;BME280;61798;48.048;-1.928;2023-04-04T02:12:16;101661.69;;;0.24;100.00
45050;BME280;61798;48.048;-1.928;2023-04-04T02:14:23;101635.75;;;0.18;100.00
45050;BME280;61798;48.048;-1.928;2023-04-04T02:16:31;101605.16;;;0.15;100.00
45050;BME280;61798;48.048;-1.928;2023-04-04T02:18:38;101662.09;;;0.46;100.00
45050;BME280;61798;48.048;-1.928;2023-04-04T02:20:46;101640.81;;;0.21;100.00
45050;BME280;61798;48.048;-1.928;2023-04-04T02:22:54;101642.91;;;0.16;100.00
45050;BME280;61798;48.048;-1.928;2023-04-04T02:25:00;101632.91;;;0.21;100.00
45050;BME280;61798;48.048;-1.928;2023-04-04T02:27:09;101618.56;;;0.25;100.00
45050;BME280;61798;48.048;-1.928;2023-04-04T02:29:16;101646.44;;;0.29;100.00
45050;BME280;61798;48.048;-1.928;2023-04-04T02:31:23;101648.97;;;0.31;100.00
45050;BME280;61798;48.048;-1.928;2023-04-04T02:33:35;101627.53;;;0.23;100.00
45050;BME280;61798;48.048;-1.928;2023-04-04T02:35:45;101643.34;;;0.23;100.00
45050;BME280;61798;48.048;-1.928;2023-04-04T02:37:52;101611.56;;;0.11;100.00
45050;BME280;61798;48.048;-1.928;2023-04-04T02:39:59;101617.34;;;0.44;100.00
45050;BME280;61798;48.048;-1.928;2023-04-04T02:42:07;101642.41;;;0.65;100.00
45050;BME280;61798;48.048;-1.928;2023-04-04T02:44:14;101617.78;;;0.38;100.00
45050;BME280;61798;48.048;-1.928;2023-04-04T02:46:20;101637.84;;;0.54;100.00
45050;BME280;61798;48.048;-1.928;2023-04-04T02:48:28;101635.38;;;0.37;100.00
45050;BME280;61798;48.048;-1.928;2023-04-04T02:50:35;101624.00;;;0.37;100.00
45050;BME280;61798;48.048;-1.928;2023-04-04T02:52:47;101640.84;;;0.62;100.00
45050;BME280;61798;48.048;-1.928;2023-04-04T02:54:54;101623.47;;;0.45;100.00
45050;BME280;61798;48.048;-1.928;2023-04-04T02:57:04;101627.53;;;0.50;100.00
45050;BME280;61798;48.048;-1.928;2023-04-04T02:59:11;101613.81;;;0.17;100.00
45050;BME280;61798;48.048;-1.928;2023-04-04T03:01:18;101644.72;;;0.28;100.00
45050;BME280;61798;48.048;-1.928;2023-04-04T03:03:27;101652.00;;;0.25;100.00
45050;BME280;61798;48.048;-1.928;2023-04-04T03:05:34;101656.38;;;0.11;100.00
45050;BME280;61798;48.048;-1.928;2023-04-04T03:07:46;101623.59;;;-0.13;100.00
45050;BME280;61798;48.048;-1.928;2023-04-04T03:09:57;101647.34;;;0.01;100.00
45050;BME280;61798;48.048;-1.928;2023-04-04T03:12:04;101621.63;;;-0.24;100.00
45050;BME280;61798;48.048;-1.928;2023-04-04T03:14:11;101651.72;;;-0.13;100.00
45050;BME280;61798;48.048;-1.928;2023-04-04T03:16:17;101631.66;;;-0.01;100.00
45050;BME280;61798;48.048;-1.928;2023-04-04T03:18:28;101642.88;;;-0.12;100.00
45050;BME280;61798;48.048;-1.928;2023-04-04T03:20:35;101628.28;;;0.25;100.00
45050;BME280;61798;48.048;-1.928;2023-04-04T03:22:43;101624.19;;;0.06;100.00
45050;BME280;61798;48.048;-1.928;2023-04-04T03:24:50;101627.88;;;0.03;100.00
45050;BME280;61798;48.048;-1.928;2023-04-04T03:26:59;101641.06;;;0.03;100.00
45050;BME280;61798;48.048;-1.928;2023-04-04T03:29:07;101611.50;;;-0.02;100.00
45050;BME280;61798;48.048;-1.928;2023-04-04T03:31:14;101649.69;;;0.05;100.00
45050;BME280;61798;48.048;-1.928;2023-04-04T03:33:21;101599.59;;;-0.23;100.00
45050;BME280;61798;48.048;-1.928;2023-04-04T03:35:29;101645.72;;;0.13;100.00
45050;BME280;61798;48.048;-1.928;2023-04-04T03:37:37;101639.16;;;0.05;100.00
45050;BME280;61798;48.048;-1.928;2023-04-04T03:39:44;101634.66;;;-0.07;100.00
45050;BME280;61798;48.048;-1.928;2023-04-04T03:41:52;101655.50;;;-0.17;100.00
45050;BME280;61798;48.048;-1.928;2023-04-04T03:44:00;101621.94;;;-0.58;100.00
45050;BME280;61798;48.048;-1.928;2023-04-04T03:46:10;101637.81;;;-0.59;100.00
45050;BME280;61798;48.048;-1.928;2023-04-04T03:48:17;101655.44;;;-0.60;100.00
45050;BME280;61798;48.048;-1.928;2023-04-04T03:50:24;101619.22;;;-0.86;100.00
45050;BME280;61798;48.048;-1.928;2023-04-04T03:52:36;101667.09;;;-0.49;100.00
45050;BME280;61798;48.048;-1.928;2023-04-04T03:54:43;101625.13;;;-0.82;100.00
45050;BME280;61798;48.048;-1.928;2023-04-04T03:56:50;101667.44;;;-0.26;100.00
45050;BME280;61798;48.048;-1.928;2023-04-04T03:58:58;101645.63;;;-0.43;100.00
45050;BME280;61798;48.048;-1.928;2023-04-04T04:01:06;101656.91;;;-0.56;100.00
45050;BME280;61798;48.048;-1.928;2023-04-04T04:03:13;101667.16;;;-0.51;100.00
45050;BME280;61798;48.048;-1.928;2023-04-04T04:05:20;101676.31;;;-0.57;100.00
45050;BME280;61798;48.048;-1.928;2023-04-04T04:07:28;101617.97;;;-0.94;100.00
45050;BME280;61798;48.048;-1.928;2023-04-04T04:09:38;101655.13;;;-0.84;100.00
45050;BME280;61798;48.048;-1.928;2023-04-04T04:11:46;101670.66;;;-0.65;100.00
45050;BME280;61798;48.048;-1.928;2023-04-04T04:13:52;101639.88;;;-0.79;100.00
45050;BME280;61798;48.048;-1.928;2023-04-04T04:16:00;101644.50;;;-0.83;100.00
45050;BME280;61798;48.048;-1.928;2023-04-04T04:18:07;101662.56;;;-0.62;100.00
45050;BME280;61798;48.048;-1.928;2023-04-04T04:20:14;101664.47;;;-0.64;100.00
45050;BME280;61798;48.048;-1.928;2023-04-04T04:22:20;101676.31;;;-0.57;100.00
45050;BME280;61798;48.048;-1.928;2023-04-04T04:24:29;101675.66;;;-0.60;100.00
45050;BME280;61798;48.048;-1.928;2023-04-04T04:26:36;101661.63;;;-0.61;100.00
45050;BME280;61798;48.048;-1.928;2023-04-04T04:28:44;101651.94;;;-0.46;100.00
45050;BME280;61798;48.048;-1.928;2023-04-04T04:30:50;101679.47;;;-0.51;100.00
45050;BME280;61798;48.048;-1.928;2023-04-04T04:32:57;101644.50;;;-0.83;100.00
45050;BME280;61798;48.048;-1.928;2023-04-04T04:35:05;101679.69;;;-0.55;100.00
45050;BME280;61798;48.048;-1.928;2023-04-04T04:37:12;101666.31;;;-0.51;100.00
45050;BME280;61798;48.048;-1.928;2023-04-04T04:39:19;101685.78;;;-0.54;100.00
45050;BME280;61798;48.048;-1.928;2023-04-04T04:41:26;101661.06;;;-0.81;100.00
45050;BME280;61798;48.048;-1.928;2023-04-04T04:43:34;101688.22;;;-0.66;100.00
45050;BME280;61798;48.048;-1.928;2023-04-04T04:45:42;101665.91;;;-0.89;100.00
45050;BME280;61798;48.048;-1.928;2023-04-04T04:47:50;101663.47;;;-0.92;100.00
45050;BME280;61798;48.048;-1.928;2023-04-04T04:49:57;101653.22;;;-0.97;100.00
45050;BME280;61798;48.048;-1.928;2023-04-04T04:52:04;101697.13;;;-0.83;100.00
45050;BME280;61798;48.048;-1.928;2023-04-04T04:54:12;101673.88;;;-1.05;100.00
45050;BME280;61798;48.048;-1.928;2023-04-04T04:56:19;101691.44;;;-1.06;100.00
45050;BME280;61798;48.048;-1.928;2023-04-04T04:58:26;101690.41;;;-1.03;100.00
45050;BME280;61798;48.048;-1.928;2023-04-04T05:00:33;101687.28;;;-1.10;100.00
45050;BME280;61798;48.048;-1.928;2023-04-04T05:02:41;101671.00;;;-1.32;100.00
45050;BME280;61798;48.048;-1.928;2023-04-04T05:04:48;101690.66;;;-1.39;100.00
45050;BME280;61798;48.048;-1.928;2023-04-04T05:06:55;101685.22;;;-1.20;100.00
45050;BME280;61798;48.048;-1.928;2023-04-04T05:09:03;101677.63;;;-1.41;100.00
45050;BME280;61798;48.048;-1.928;2023-04-04T05:11:10;101697.97;;;-1.28;100.00
45050;BME280;61798;48.048;-1.928;2023-04-04T05:13:16;101667.94;;;-1.40;100.00
45050;BME280;61798;48.048;-1.928;2023-04-04T05:15:23;101694.78;;;-1.19;100.00
45050;BME280;61798;48.048;-1.928;2023-04-04T05:17:34;101695.75;;;-1.20;100.00
45050;BME280;61798;48.048;-1.928;2023-04-04T05:19:42;101704.31;;;-1.16;100.00
45050;BME280;61798;48.048;-1.928;2023-04-04T05:21:49;101679.47;;;-1.43;100.00
45050;BME280;61798;48.048;-1.928;2023-04-04T05:23:56;101700.72;;;-1.15;100.00
45050;BME280;61798;48.048;-1.928;2023-04-04T05:26:04;101703.25;;;-1.13;100.00
45050;BME280;61798;48.048;-1.928;2023-04-04T05:28:12;101717.69;;;-1.04;100.00
45050;BME280;61798;48.048;-1.928;2023-04-04T05:30:19;101683.09;;;-1.29;100.00
45050;BME280;61798;48.048;-1.928;2023-04-04T05:32:26;101708.47;;;-1.28;100.00
45050;BME280;61798;48.048;-1.928;2023-04-04T05:34:34;101705.44;;;-1.36;100.00
45050;BME280;61798;48.048;-1.928;2023-04-04T05:36:41;101703.72;;;-1.38;100.00
45050;BME280;61798;48.048;-1.928;2023-04-04T05:38:48;101688.47;;;-1.47;100.00
45050;BME280;61798;48.048;-1.928;2023-04-04T05:40:54;101706.84;;;-1.31;100.00
45050;BME280;61798;48.048;-1.928;2023-04-04T05:43:01;101683.78;;;-1.25;100.00
45050;BME280;61798;48.048;-1.928;2023-04-04T05:45:09;101714.16;;;-1.20;100.00
45050;BME280;61798;48.048;-1.928;2023-04-04T05:47:15;101716.22;;;-1.10;100.00
45050;BME280;61798;48.048;-1.928;2023-04-04T05:49:21;101719.78;;;-1.11;100.00
45050;BME280;61798;48.048;-1.928;2023-04-04T05:51:27;101706.75;;;-1.13;100.00
45050;BME280;61798;48.048;-1.928;2023-04-04T05:53:33;101683.84;;;-1.27;100.00
45050;BME280;61798;48.048;-1.928;2023-04-04T05:55:40;101670.31;;;-1.35;100.00
45050;BME280;61798;48.048;-1.928;2023-04-04T05:57:48;101721.91;;;-0.56;100.00
45050;BME280;61798;48.048;-1.928;2023-04-04T05:59:55;101709.78;;;0.00;100.00
45050;BME280;61798;48.048;-1.928;2023-04-04T06:02:03;101710.34;;;-0.09;100.00
45050;BME280;61798;48.048;-1.928;2023-04-04T06:04:11;101737.63;;;-0.11;100.00
45050;BME280;61798;48.048;-1.928;2023-04-04T06:06:18;101738.97;;;-0.18;100.00
45050;BME280;61798;48.048;-1.928;2023-04-04T06:08:25;101728.81;;;-0.24;100.00
45050;BME280;61798;48.048;-1.928;2023-04-04T06:10:33;101702.75;;;-0.29;100.00
45050;BME280;61798;48.048;-1.928;2023-04-04T06:12:40;101746.78;;;-0.16;100.00
45050;BME280;61798;48.048;-1.928;2023-04-04T06:14:46;101721.25;;;-0.30;100.00
45050;BME280;61798;48.048;-1.928;2023-04-04T06:16:52;101701.22;;;-0.48;100.00
45050;BME280;61798;48.048;-1.928;2023-04-04T06:18:58;101714.50;;;-0.35;100.00
45050;BME280;61798;48.048;-1.928;2023-04-04T06:21:04;101705.38;;;-0.14;100.00
45050;BME280;61798;48.048;-1.928;2023-04-04T06:23:10;101735.09;;;0.03;100.00
45050;BME280;61798;48.048;-1.928;2023-04-04T06:25:16;101694.44;;;-0.23;100.00
45050;BME280;61798;48.048;-1.928;2023-04-04T06:27:22;101717.69;;;-0.15;100.00
45050;BME280;61798;48.048;-1.928;2023-04-04T06:29:28;101747.34;;;0.04;100.00
45050;BME280;61798;48.048;-1.928;2023-04-04T06:31:35;101758.06;;;0.01;100.00
45050;BME280;61798;48.048;-1.928;2023-04-04T06:33:41;101756.84;;;0.06;100.00
45050;BME280;61798;48.048;-1.928;2023-04-04T06:35:47;101748.34;;;0.01;100.00
45050;BME280;61798;48.048;-1.928;2023-04-04T06:37:57;101707.53;;;-0.21;100.00
45050;BME280;61798;48.048;-1.928;2023-04-04T06:40:03;101723.53;;;-0.09;100.00
45050;BME280;61798;48.048;-1.928;2023-04-04T06:42:09;101760.03;;;0.12;100.00
45050;BME280;61798;48.048;-1.928;2023-04-04T06:44:17;101757.75;;;0.20;100.00
45050;BME280;61798;48.048;-1.928;2023-04-04T06:46:23;101714.28;;;-0.02;100.00
45050;BME280;61798;48.048;-1.928;2023-04-04T06:48:30;101720.03;;;0.19;100.00
45050;BME280;61798;48.048;-1.928;2023-04-04T06:50:36;101747.56;;;0.43;100.00
45050;BME280;61798;48.048;-1.928;2023-04-04T06:52:43;101758.16;;;0.56;100.00
45050;BME280;61798;48.048;-1.928;2023-04-04T06:54:49;101725.41;;;0.46;100.00
45050;BME280;61798;48.048;-1.928;2023-04-04T06:56:55;101740.66;;;0.55;100.00
45050;BME280;61798;48.048;-1.928;2023-04-04T06:59:01;101774.53;;;0.89;100.00
45050;BME280;61798;48.048;-1.928;2023-04-04T07:01:08;101731.19;;;0.66;100.00
45050;BME280;61798;48.048;-1.928;2023-04-04T07:03:14;101732.91;;;0.80;100.00
45050;BME280;61798;48.048;-1.928;2023-04-04T07:05:20;101756.97;;;1.03;100.00
45050;BME280;61798;48.048;-1.928;2023-04-04T07:07:26;101703.81;;;0.94;100.00
45050;BME280;61798;48.048;-1.928;2023-04-04T07:09:32;101740.16;;;1.04;100.00
45050;BME280;61798;48.048;-1.928;2023-04-04T07:11:39;101719.06;;;1.17;100.00
45050;BME280;61798;48.048;-1.928;2023-04-04T07:13:45;101705.44;;;1.10;100.00
45050;BME280;61798;48.048;-1.928;2023-04-04T07:15:51;101756.72;;;1.47;100.00
45050;BME280;61798;48.048;-1.928;2023-04-04T07:17:57;101757.34;;;1.51;100.00
45050;BME280;61798;48.048;-1.928;2023-04-04T07:20:05;101717.69;;;1.24;100.00
45050;BME280;61798;48.048;-1.928;2023-04-04T07:22:11;101757.16;;;1.67;100.00
45050;BME280;61798;48.048;-1.928;2023-04-04T07:24:17;101749.63;;;1.61;100.00
45050;BME280;61798;48.048;-1.928;2023-04-04T07:26:23;101741.47;;;1.64;100.00
45050;BME280;61798;48.048;-1.928;2023-04-04T07:28:29;101735.56;;;1.60;100.00
45050;BME280;61798;48.048;-1.928;2023-04-04T07:30:36;101745.72;;;1.66;100.00
45050;BME280;61798;48.048;-1.928;2023-04-04T07:32:41;101721.31;;;1.63;100.00
45050;BME280;61798;48.048;-1.928;2023-04-04T07:34:48;101745.69;;;1.93;100.00
45050;BME280;61798;48.048;-1.928;2023-04-04T07:36:55;101755.31;;;1.94;100.00
45050;BME280;61798;48.048;-1.928;2023-04-04T07:39:01;101755.94;;;1.97;100.00
45050;BME280;61798;48.048;-1.928;2023-04-04T07:41:07;101728.38;;;1.75;100.00
45050;BME280;61798;48.048;-1.928;2023-04-04T07:43:14;101775.94;;;2.02;100.00
45050;BME280;61798;48.048;-1.928;2023-04-04T07:45:20;101736.81;;;1.94;100.00
45050;BME280;61798;48.048;-1.928;2023-04-04T07:47:29;101751.59;;;2.22;100.00
45050;BME280;61798;48.048;-1.928;2023-04-04T07:49:34;101764.50;;;2.14;100.00
45050;BME280;61798;48.048;-1.928;2023-04-04T07:51:40;101752.66;;;2.07;100.00
45050;BME280;61798;48.048;-1.928;2023-04-04T07:53:46;101761.00;;;2.27;100.00
45050;BME280;61798;48.048;-1.928;2023-04-04T07:55:52;101739.94;;;2.12;100.00
45050;BME280;61798;48.048;-1.928;2023-04-04T07:57:58;101731.91;;;2.14;100.00
45050;BME280;61798;48.048;-1.928;2023-04-04T08:00:06;101764.00;;;2.47;100.00
45050;BME280;61798;48.048;-1.928;2023-04-04T08:02:14;101772.88;;;2.46;100.00
45050;BME280;61798;48.048;-1.928;2023-04-04T08:04:20;101753.75;;;2.67;100.00
45050;BME280;61798;48.048;-1.928;2023-04-04T08:06:26;101757.78;;;2.84;100.00
45050;BME280;61798;48.048;-1.928;2023-04-04T08:08:32;101747.66;;;2.53;100.00
45050;BME280;61798;48.048;-1.928;2023-04-04T08:10:38;101738.56;;;2.57;100.00
45050;BME280;61798;48.048;-1.928;2023-04-04T08:12:44;101730.31;;;2.73;100.00
45050;BME280;61798;48.048;-1.928;2023-04-04T08:14:50;101750.69;;;3.09;100.00
45050;BME280;61798;48.048;-1.928;2023-04-04T08:16:56;101724.25;;;2.96;100.00
45050;BME280;61798;48.048;-1.928;2023-04-04T08:19:03;101732.50;;;3.16;100.00
45050;BME280;61798;48.048;-1.928;2023-04-04T08:21:09;101742.19;;;3.40;100.00
45050;BME280;61798;48.048;-1.928;2023-04-04T08:23:15;101745.44;;;3.32;100.00
45050;BME280;61798;48.048;-1.928;2023-04-04T08:25:21;101753.06;;;3.48;100.00
45050;BME280;61798;48.048;-1.928;2023-04-04T08:27:27;101718.09;;;3.32;100.00
45050;BME280;61798;48.048;-1.928;2023-04-04T08:29:33;101724.41;;;3.42;100.00
45050;BME280;61798;48.048;-1.928;2023-04-04T08:31:40;101751.19;;;3.85;100.00
45050;BME280;61798;48.048;-1.928;2023-04-04T08:33:46;101722.47;;;3.67;100.00
45050;BME280;61798;48.048;-1.928;2023-04-04T08:35:52;101730.78;;;3.97;100.00
45050;BME280;61798;48.048;-1.928;2023-04-04T08:37:58;101723.44;;;4.01;100.00
45050;BME280;61798;48.048;-1.928;2023-04-04T08:40:07;101744.34;;;4.39;100.00
45050;BME280;61798;48.048;-1.928;2023-04-04T08:42:14;101713.91;;;3.87;100.00
45050;BME280;61798;48.048;-1.928;2023-04-04T08:44:26;101748.75;;;4.17;100.00
45050;BME280;61798;48.048;-1.928;2023-04-04T08:46:33;101729.91;;;4.20;100.00
45050;BME280;61798;48.048;-1.928;2023-04-04T08:48:41;101742.56;;;4.28;100.00
45050;BME280;61798;48.048;-1.928;2023-04-04T08:50:49;101701.47;;;4.22;100.00
45050;BME280;61798;48.048;-1.928;2023-04-04T08:52:56;101725.66;;;4.40;100.00
45050;BME280;61798;48.048;-1.928;2023-04-04T08:55:04;101697.69;;;4.36;100.00
45050;BME280;61798;48.048;-1.928;2023-04-04T08:57:10;101736.47;;;4.93;100.00
45050;BME280;61798;48.048;-1.928;2023-04-04T08:59:17;101715.28;;;5.25;100.00
45050;BME280;61798;48.048;-1.928;2023-04-04T09:01:23;101715.53;;;5.00;100.00
45050;BME280;61798;48.048;-1.928;2023-04-04T09:03:30;101651.06;;;4.76;100.00
45050;BME280;61798;48.048;-1.928;2023-04-04T09:05:37;101734.50;;;4.95;100.00
45050;BME280;61798;48.048;-1.928;2023-04-04T09:07:44;101666.59;;;5.03;100.00
45050;BME280;61798;48.048;-1.928;2023-04-04T09:09:51;101700.50;;;5.32;100.00
45050;BME280;61798;48.048;-1.928;2023-04-04T09:12:01;101716.91;;;5.16;100.00
45050;BME280;61798;48.048;-1.928;2023-04-04T09:14:08;101710.19;;;5.22;100.00
45050;BME280;61798;48.048;-1.928;2023-04-04T09:16:14;101729.91;;;5.19;100.00
45050;BME280;61798;48.048;-1.928;2023-04-04T09:18:20;101703.22;;;4.99;100.00
45050;BME280;61798;48.048;-1.928;2023-04-04T09:20:37;101735.13;;;5.21;100.00
45050;BME280;61798;48.048;-1.928;2023-04-04T09:22:45;101704.13;;;5.31;100.00
45050;BME280;61798;48.048;-1.928;2023-04-04T09:24:51;101725.09;;;5.56;100.00
45050;BME280;61798;48.048;-1.928;2023-04-04T09:26:57;101739.09;;;5.58;100.00
45050;BME280;61798;48.048;-1.928;2023-04-04T09:29:07;101716.34;;;5.75;100.00
45050;BME280;61798;48.048;-1.928;2023-04-04T09:31:13;101729.03;;;5.61;100.00
45050;BME280;61798;48.048;-1.928;2023-04-04T09:33:21;101731.88;;;5.70;100.00
45050;BME280;61798;48.048;-1.928;2023-04-04T09:35:31;101661.13;;;5.57;100.00
45050;BME280;61798;48.048;-1.928;2023-04-04T09:37:39;101712.06;;;5.84;100.00
45050;BME280;61798;48.048;-1.928;2023-04-04T09:39:46;101708.75;;;6.02;100.00
45050;BME280;61798;48.048;-1.928;2023-04-04T09:41:56;101712.19;;;5.82;100.00
45050;BME280;61798;48.048;-1.928;2023-04-04T09:44:03;101685.53;;;6.14;100.00
45050;BME280;61798;48.048;-1.928;2023-04-04T09:46:10;101706.22;;;6.52;100.00
45050;BME280;61798;48.048;-1.928;2023-04-04T09:48:30;101711.66;;;6.50;100.00
45050;BME280;61798;48.048;-1.928;2023-04-04T09:50:44;101719.94;;;6.57;100.00
45050;BME280;61798;48.048;-1.928;2023-04-04T09:52:51;101718.97;;;6.68;100.00
45050;BME280;61798;48.048;-1.928;2023-04-04T09:54:58;101692.59;;;6.45;100.00
45050;BME280;61798;48.048;-1.928;2023-04-04T09:57:07;101689.38;;;6.61;100.00
45050;BME280;61798;48.048;-1.928;2023-04-04T09:59:14;101717.97;;;6.69;100.00
45050;BME280;61798;48.048;-1.928;2023-04-04T10:01:20;101732.00;;;6.81;100.00
45050;BME280;61798;48.048;-1.928;2023-04-04T10:03:29;101723.09;;;7.30;100.00
45050;BME280;61798;48.048;-1.928;2023-04-04T10:05:35;101700.03;;;6.81;100.00
45050;BME280;61798;48.048;-1.928;2023-04-04T10:07:41;101683.63;;;6.86;100.00
45050;BME280;61798;48.048;-1.928;2023-04-04T10:09:49;101712.50;;;6.71;100.00
45050;BME280;61798;48.048;-1.928;2023-04-04T10:12:10;101702.78;;;7.09;100.00
45050;BME280;61798;48.048;-1.928;2023-04-04T10:14:16;101700.44;;;6.96;100.00
45050;BME280;61798;48.048;-1.928;2023-04-04T10:16:25;101691.22;;;6.61;100.00
45050;BME280;61798;48.048;-1.928;2023-04-04T10:18:33;101707.47;;;6.87;100.00
45050;BME280;61798;48.048;-1.928;2023-04-04T10:20:41;101674.34;;;6.90;100.00
45050;BME280;61798;48.048;-1.928;2023-04-04T10:22:48;101693.59;;;7.42;100.00
45050;BME280;61798;48.048;-1.928;2023-04-04T10:24:56;101676.03;;;6.81;100.00
45050;BME280;61798;48.048;-1.928;2023-04-04T10:27:05;101691.19;;;7.49;100.00
45050;BME280;61798;48.048;-1.928;2023-04-04T10:29:11;101633.44;;;7.29;100.00
45050;BME280;61798;48.048;-1.928;2023-04-04T10:31:24;101672.16;;;7.72;100.00
45050;BME280;61798;48.048;-1.928;2023-04-04T10:35:43;101619.78;;;7.89;100.00
45050;BME280;61798;48.048;-1.928;2023-04-04T10:37:58;101665.44;;;8.14;100.00
45050;BME280;61798;48.048;-1.928;2023-04-04T10:40:20;101663.97;;;7.74;100.00
45050;BME280;61798;48.048;-1.928;2023-04-04T10:42:31;101654.06;;;8.12;100.00
45050;BME280;61798;48.048;-1.928;2023-04-04T10:44:42;101637.59;;;8.35;100.00
45050;BME280;61798;48.048;-1.928;2023-04-04T10:46:52;101610.81;;;7.62;100.00
45050;BME280;61798;48.048;-1.928;2023-04-04T10:48:59;101673.31;;;8.34;100.00
45050;BME280;61798;48.048;-1.928;2023-04-04T10:51:07;101678.56;;;8.26;100.00
45050;BME280;61798;48.048;-1.928;2023-04-04T10:53:15;101662.84;;;8.41;100.00
45050;BME280;61798;48.048;-1.928;2023-04-04T10:55:21;101637.22;;;8.12;100.00
45050;BME280;61798;48.048;-1.928;2023-04-04T10:57:28;101647.72;;;8.50;100.00
45050;BME280;61798;48.048;-1.928;2023-04-04T11:00:03;101642.59;;;8.57;100.00
45050;BME280;61798;48.048;-1.928;2023-04-04T11:02:11;101638.88;;;8.50;100.00